• Join FlightAware (Why Join?)
  • Login
  • US Flag 
03:17PM EST


 

Airport Tracker/Info


-or-


 

Live Flight TrackerFlight Track Log ✈ CSN3226 ✈ 11-Jul-2013 ✈ ZLXY / XIY - ZGSZ / SZX

Flight Track Log - Related Links

Times and Time Zones

All times are in EDT time to prevent confusion due to time zone crossing. See the CSN3226 flight status page for this flight to view local times or setup timezone preferences in your user account.

Time Position Orientation Groundspeed Altitude Reporting Facility
EDT Latitude Longitude Course Direction KTS MPH feet Rate Location/Type
12:17AM 34.3408 108.8034 158° South  Level Estimated
12:18AM 34.2344 108.8550 158° South  Level Estimated
12:19AM 34.1280 108.9065 158° South  Level Estimated
12:20AM 34.0216 108.9578 158° South  Level Estimated
12:21AM 33.9151 109.0091 158° South  Level Estimated
12:22AM 33.8087 109.0602 158° South  Level Estimated
12:23AM 33.7022 109.1112 158° South  Level Estimated
12:24AM 33.5957 109.1620 158° South  Level Estimated
12:25AM 33.4892 109.2128 158° South  Level Estimated
12:26AM 33.3826 109.2634 158° South  Level Estimated
12:27AM 33.2760 109.3139 158° South  Level Estimated
12:28AM 33.1694 109.3642 158° South  Level Estimated
12:29AM 33.0628 109.4145 158° South  Level Estimated
12:30AM 32.9562 109.4646 158° South  Level Estimated
12:31AM 32.8496 109.5146 159° South  Level Estimated
12:32AM 32.7429 109.5645 159° South  Level Estimated
12:33AM 32.6362 109.6142 159° South  Level Estimated
12:34AM 32.5295 109.6639 159° South  Level Estimated
12:35AM 32.4228 109.7134 159° South  Level Estimated
12:36AM 32.3160 109.7628 159° South  Level Estimated
12:37AM 32.2093 109.8121 159° South  Level Estimated
12:38AM 32.1025 109.8612 159° South  Level Estimated
12:39AM 31.9957 109.9103 159° South  Level Estimated
12:40AM 31.8889 109.9592 159° South  Level Estimated
12:41AM 31.7820 110.0081 159° South  Level Estimated
12:42AM 31.6752 110.0568 159° South  Level Estimated
12:43AM 31.5683 110.1054 159° South  Level Estimated
12:44AM 31.4614 110.1539 159° South  Level Estimated
12:45AM 31.3545 110.2023 159° South  Level Estimated
12:46AM 31.2475 110.2505 159° South  Level Estimated
12:47AM 31.1406 110.2987 159° South  Level Estimated
12:48AM 31.0336 110.3467 159° South  Level Estimated
12:49AM 30.9266 110.3947 159° South  Level Estimated
12:50AM 30.8197 110.4425 159° South  Level Estimated
12:51AM 30.7126 110.4903 159° South  Level Estimated
12:52AM 30.6056 110.5379 159° South  Level Estimated
12:53AM 30.4985 110.5854 159° South  Level Estimated
12:54AM 30.3915 110.6328 159° South  Level Estimated
12:55AM 30.2844 110.6801 159° South  Level Estimated
12:56AM 30.1773 110.7273 159° South  Level Estimated
12:57AM 30.0702 110.7745 159° South  Level Estimated
12:58AM 29.9630 110.8215 159° South  Level Estimated
12:59AM 29.8559 110.8684 159° South  Level Estimated
01:00AM 29.7487 110.9152 159° South  Level Estimated
01:01AM 29.6415 110.9619 159° South  Level Estimated
01:02AM 29.5343 111.0085 159° South  Level Estimated
01:03AM 29.4271 111.0550 159° South  Level Estimated
01:04AM 29.3198 111.1014 159° South  Level Estimated
01:05AM 29.2126 111.1477 159° South  Level Estimated
01:06AM 29.1053 111.1939 159° South  Level Estimated
01:07AM 28.9980 111.2400 159° South  Level Estimated
01:08AM 28.8907 111.2860 159° South  Level Estimated
01:09AM 28.7834 111.3320 159° South  Level Estimated
01:10AM 28.6761 111.3778 159° South  Level Estimated
01:11AM 28.5687 111.4236 159° South  Level Estimated
01:12AM 28.4613 111.4692 160° South  Level Estimated
01:13AM 28.3540 111.5147 160° South  Level Estimated
01:14AM 28.2466 111.5602 160° South  Level Estimated
01:15AM 28.1392 111.6056 160° South  Level Estimated
01:16AM 28.0317 111.6509 160° South  Level Estimated
01:17AM 27.9243 111.6961 160° South  Level Estimated
01:18AM 27.8169 111.7411 160° South  Level Estimated
01:19AM 27.7094 111.7862 160° South  Level Estimated
01:20AM 27.6019 111.8311 160° South  Level Estimated
01:21AM 27.4944 111.8759 160° South  Level Estimated
01:22AM 27.3869 111.9207 160° South  Level Estimated
01:23AM 27.2794 111.9653 160° South  Level Estimated
01:24AM 27.1718 112.0099 160° South  Level Estimated
01:25AM 27.0643 112.0544 160° South  Level Estimated
01:26AM 26.9567 112.0988 160° South  Level Estimated
01:27AM 26.8491 112.1431 160° South  Level Estimated
01:28AM 26.7416 112.1873 160° South  Level Estimated
01:29AM 26.6339 112.2315 160° South  Level Estimated
01:30AM 26.5263 112.2755 160° South  Level Estimated
01:31AM 26.4187 112.3195 160° South  Level Estimated
01:32AM 26.3110 112.3634 160° South  Level Estimated
01:33AM 26.2034 112.4072 160° South  Level Estimated
01:34AM 26.0957 112.4510 160° South  Level Estimated
01:35AM 25.9880 112.4946 160° South  Level Estimated
01:36AM 25.8803 112.5382 160° South  Level Estimated
01:37AM 25.7726 112.5817 160° South  Level Estimated
01:38AM 25.6649 112.6251 160° South  Level Estimated
01:39AM 25.5571 112.6685 160° South  Level Estimated
01:40AM 25.4494 112.7117 160° South  Level Estimated
01:41AM 25.3416 112.7549 160° South  Level Estimated
01:42AM 25.2338 112.7980 160° South  Level Estimated
01:43AM 25.1260 112.8411 160° South  Level Estimated
01:44AM 25.0182 112.8840 160° South  Level Estimated
01:45AM 24.9104 112.9269 160° South  Level Estimated
01:46AM 24.8026 112.9697 160° South  Level Estimated
01:47AM 24.6947 113.0125 160° South  Level Estimated
01:48AM 24.5869 113.0551 160° South  Level Estimated
01:49AM 24.4790 113.0977 160° South  Level Estimated
01:50AM 24.3711 113.1402 160° South  Level Estimated
01:51AM 24.2633 113.1826 160° South  Level Estimated
01:52AM 24.1554 113.2250 160° South  Level Estimated
01:53AM 24.0474 113.2673 160° South  Level Estimated
01:54AM 23.9395 113.3095 160° South  Level Estimated
01:55AM 23.8316 113.3517 160° South  Level Estimated
01:56AM 23.7236 113.3938 160° South  Level Estimated
01:57AM 23.6157 113.4358 160° South  Level Estimated
01:58AM 23.5077 113.4777 160° South  Level Estimated
01:59AM 23.3997 113.5196 160° South  Level Estimated
02:00AM 23.2917 113.5614 160° South  Level Estimated
02:01AM 23.1838 113.6031 160° South  Level Estimated
02:02AM 23.0757 113.6448 160° South  Level Estimated
02:03AM 22.9677 113.6864 160° South  Level Estimated
02:04AM 22.8597 113.7280 160° South  Level Estimated
02:05AM 22.7516 113.7694 161° South  Level Estimated
02:06AM 22.6436 113.8108 161° South  Level Estimated
02:07AM 22.6395 113.8124 161° South  Level Estimated
02:08AM 22.6395 113.8124 25° Northeast  Level Estimated
02:09AM 22.6395 113.8124 25° Northeast  Level Estimated
02:10AM 22.6395 113.8124 25° Northeast  Level Estimated
02:11AM 22.6395 113.8124 25° Northeast  Level Estimated
02:12AM 22.6395 113.8124 25° Northeast  Level Estimated
02:13AM 22.6395 113.8124 25° Northeast  Level Estimated
02:14AM 22.6395 113.8124 25° Northeast  Level Estimated
02:15AM 22.6395 113.8124 25° Northeast  Level Estimated
02:16AM 22.6395 113.8124 25° Northeast  Level Estimated
02:17AM 22.6395 113.8124 25° Northeast  Level Estimated
02:18AM 22.6395 113.8124 25° Northeast  Level Estimated
02:19AM 22.6395 113.8124 25° Northeast  Level Estimated
02:20AM 22.6395 113.8124 25° Northeast  Level Estimated
02:21AM 22.6395 113.8124 25° Northeast  Level Estimated
02:22AM 22.6395 113.8124 25° Northeast  Level Estimated
02:23AM 22.6395 113.8124 25° Northeast  Level Estimated